Time,TemperatureF,DewpointF,PressureIn,WindDirection,WindDirectionDegrees,WindSpeedMPH,WindSpeedGustMPH,Humidity,HourlyPrecipIn,Conditions,Clouds,dailyrainin,SolarRadiationWatts/m^2,SoftwareType,DateUTC
2013-02-03 00:11:00,49.0,39.0,30.27,NW,320,3.0,3.0,68,0.00,,,0.00,0,weatherlink.com 1.10,2013-02-03 06:11:00,
2013-02-03 00:26:00,48.0,40.0,30.27,NW,320,3.0,3.0,73,0.00,,,0.00,0,weatherlink.com 1.10,2013-02-03 06:26:00,
2013-02-03 00:41:00,46.5,40.0,30.27,NW,320,3.0,3.0,77,0.00,,,0.00,0,weatherlink.com 1.10,2013-02-03 06:41:00,
2013-02-03 00:56:00,46.1,40.0,30.27,NW,320,5.0,5.0,79,0.00,,,0.00,0,weatherlink.com 1.10,2013-02-03 06:56:00,
2013-02-03 01:11:00,47.8,37.0,30.27,NW,320,2.0,5.0,67,0.00,,,0.00,0,weatherlink.com 1.10,2013-02-03 07:11:00,
2013-02-03 01:26:00,47.7,36.0,30.27,NW,320,3.0,4.0,64,0.00,,,0.00,0,weatherlink.com 1.10,2013-02-03 07:26:00,
2013-02-03 01:41:00,47.0,35.0,30.27,NW,320,3.0,3.0,64,0.00,,,0.00,0,weatherlink.com 1.10,2013-02-03 07:41:00,
2013-02-03 01:56:00,47.1,35.0,30.27,NW,320,2.0,4.0,64,0.00,,,0.00,0,weatherlink.com 1.10,2013-02-03 07:56:00,
2013-02-03 02:11:00,46.6,35.0,30.27,NW,320,3.0,4.0,65,0.00,,,0.00,0,weatherlink.com 1.10,2013-02-03 08:11:00,
2013-02-03 02:26:00,46.0,36.0,30.26,NW,320,2.0,5.0,67,0.00,,,0.00,0,weatherlink.com 1.10,2013-02-03 08:26:00,
2013-02-03 02:41:00,46.0,35.0,30.26,NW,320,2.0,3.0,66,0.00,,,0.00,0,weatherlink.com 1.10,2013-02-03 08:41:00,
2013-02-03 02:56:00,45.9,35.0,30.26,NW,320,3.0,3.0,66,0.00,,,0.00,0,weatherlink.com 1.10,2013-02-03 08:56:00,
2013-02-03 03:11:00,46.5,35.0,30.25,NW,320,5.0,5.0,65,0.00,,,0.00,0,weatherlink.com 1.10,2013-02-03 09:11:00,
2013-02-03 03:26:00,45.9,35.0,30.25,NW,318,5.0,6.0,66,0.00,,,0.00,0,weatherlink.com 1.10,2013-02-03 09:26:00,
2013-02-03 03:41:00,45.7,35.0,30.25,NW,316,2.0,5.0,66,0.00,,,0.00,0,weatherlink.com 1.10,2013-02-03 09:41:00,
2013-02-03 03:56:00,44.8,35.0,30.25,NW,316,1.0,2.0,68,0.00,,,0.00,0,weatherlink.com 1.10,2013-02-03 09:56:00,
2013-02-03 04:11:00,45.0,35.0,30.25,NW,316,2.0,2.0,67,0.00,,,0.00,0,weatherlink.com 1.10,2013-02-03 10:11:00,
2013-02-03 04:27:00,43.5,35.0,30.25,NW,316,4.0,4.0,71,0.00,,,0.00,0,weatherlink.com 1.10,2013-02-03 10:27:00,
2013-02-03 04:42:00,40.3,33.0,30.25,WSW,237,1.0,4.0,76,0.00,,,0.00,0,weatherlink.com 1.10,2013-02-03 10:42:00,
2013-02-03 04:57:00,39.9,34.0,30.25,WSW,237,2.0,3.0,79,0.00,,,0.00,0,weatherlink.com 1.10,2013-02-03 10:57:00,
2013-02-03 05:12:00,40.3,34.0,30.25,WSW,237,2.0,4.0,77,0.00,,,0.00,0,weatherlink.com 1.10,2013-02-03 11:12:00,
2013-02-03 05:27:00,40.5,34.0,30.25,WSW,237,2.0,3.0,77,0.00,,,0.00,0,weatherlink.com 1.10,2013-02-03 11:27:00,
2013-02-03 05:42:00,40.3,34.0,30.25,WSW,237,2.0,4.0,77,0.00,,,0.00,0,weatherlink.com 1.10,2013-02-03 11:42:00,
2013-02-03 05:57:00,40.1,34.0,30.25,WSW,237,3.0,4.0,78,0.00,,,0.00,0,weatherlink.com 1.10,2013-02-03 11:57:00,
2013-02-03 06:12:00,40.3,34.0,30.25,WSW,237,3.0,4.0,78,0.00,,,0.00,0,weatherlink.com 1.10,2013-02-03 12:12:00,
2013-02-03 06:27:00,40.6,34.0,30.25,WSW,237,2.0,3.0,77,0.00,,,0.00,0,weatherlink.com 1.10,2013-02-03 12:27:00,
2013-02-03 06:42:00,40.4,34.0,30.25,WSW,237,3.0,4.0,77,0.00,,,0.00,0,weatherlink.com 1.10,2013-02-03 12:42:00,
2013-02-03 06:57:00,40.2,34.0,30.25,WSW,237,3.0,3.0,77,0.00,,,0.00,0,weatherlink.com 1.10,2013-02-03 12:57:00,
2013-02-03 07:12:00,39.9,34.0,30.26,WSW,237,1.0,2.0,78,0.00,,,0.00,0,weatherlink.com 1.10,2013-02-03 13:12:00,
2013-02-03 07:27:00,39.5,34.0,30.26,WSW,237,1.0,2.0,79,0.00,,,0.00,9,weatherlink.com 1.10,2013-02-03 13:27:00,
2013-02-03 07:42:00,39.9,34.0,30.26,WSW,237,1.0,2.0,78,0.00,,,0.00,30,weatherlink.com 1.10,2013-02-03 13:42:00,
2013-02-03 07:57:00,40.9,35.0,30.26,WSW,237,2.0,3.0,79,0.00,,,0.00,60,weatherlink.com 1.10,2013-02-03 13:57:00,
2013-02-03 08:12:00,41.6,37.0,30.27,WSW,237,1.0,2.0,83,0.00,,,0.00,100,weatherlink.com 1.10,2013-02-03 14:12:00,
2013-02-03 08:27:00,42.7,39.0,30.27,WSW,237,0.0,1.0,85,0.00,,,0.00,144,weatherlink.com 1.10,2013-02-03 14:27:00,
2013-02-03 08:42:00,45.0,41.0,30.27,WSW,237,0.0,1.0,85,0.00,,,0.00,209,weatherlink.com 1.10,2013-02-03 14:42:00,
2013-02-03 08:57:00,48.5,44.0,30.27,WSW,237,0.0,2.0,83,0.00,,,0.00,251,weatherlink.com 1.10,2013-02-03 14:57:00,
2013-02-03 09:12:00,52.3,42.0,30.27,WSW,237,0.0,1.0,67,0.00,,,0.00,294,weatherlink.com 1.10,2013-02-03 15:12:00,
2013-02-03 09:27:00,53.8,43.0,30.28,WSW,237,2.0,4.0,68,0.00,,,0.00,336,weatherlink.com 1.10,2013-02-03 15:27:00,
2013-02-03 09:42:00,52.5,42.0,30.27,WSW,237,2.0,5.0,67,0.00,,,0.00,345,weatherlink.com 1.10,2013-02-03 15:42:00,
2013-02-03 09:57:00,53.5,42.0,30.27,WSW,237,4.0,6.0,66,0.00,,,0.00,457,weatherlink.com 1.10,2013-02-03 15:57:00,
2013-02-03 10:12:00,55.2,41.0,30.27,WSW,237,1.0,6.0,60,0.00,,,0.00,478,weatherlink.com 1.10,2013-02-03 16:12:00,
2013-02-03 10:27:00,58.1,40.0,30.27,ESE,122,3.0,7.0,51,0.00,,,0.00,510,weatherlink.com 1.10,2013-02-03 16:27:00,
2013-02-03 10:43:00,60.1,40.0,30.26,SE,136,2.0,6.0,48,0.00,,,0.00,545,weatherlink.com 1.10,2013-02-03 16:43:00,
2013-02-03 10:58:00,61.3,41.0,30.26,SSE,147,0.0,6.0,47,0.00,,,0.00,584,weatherlink.com 1.10,2013-02-03 16:58:00,
2013-02-03 11:13:00,63.4,39.0,30.26,SSE,154,4.0,8.0,40,0.00,,,0.00,594,weatherlink.com 1.10,2013-02-03 17:13:00,
2013-02-03 11:28:00,64.3,37.0,30.25,SSE,162,4.0,8.0,37,0.00,,,0.00,622,weatherlink.com 1.10,2013-02-03 17:28:00,
2013-02-03 11:43:00,65.2,34.0,30.24,SE,144,7.0,8.0,32,0.00,,,0.00,677,weatherlink.com 1.10,2013-02-03 17:43:00,
2013-02-03 11:58:00,65.5,34.0,30.24,SSE,147,0.0,12.0,31,0.00,,,0.00,555,weatherlink.com 1.10,2013-02-03 17:58:00,
2013-02-03 12:13:00,66.5,33.0,30.23,SE,141,0.0,9.0,29,0.00,,,0.00,687,weatherlink.com 1.10,2013-02-03 18:13:00,
2013-02-03 12:28:00,67.5,30.0,30.21,SE,128,8.0,13.0,25,0.00,,,0.00,508,weatherlink.com 1.10,2013-02-03 18:28:00,
2013-02-03 12:43:00,67.6,28.0,30.20,SSE,160,2.0,10.0,23,0.00,,,0.00,686,weatherlink.com 1.10,2013-02-03 18:43:00,
2013-02-03 12:58:00,67.5,29.0,30.19,SE,126,5.0,14.0,24,0.00,,,0.00,728,weatherlink.com 1.10,2013-02-03 18:58:00,
2013-02-03 13:13:00,67.8,30.0,30.18,East,99,9.0,14.0,24,0.00,,,0.00,779,weatherlink.com 1.10,2013-02-03 19:13:00,
2013-02-03 13:28:00,68.3,32.0,30.17,ESE,120,11.0,12.0,26,0.00,,,0.00,606,weatherlink.com 1.10,2013-02-03 19:28:00,
2013-02-03 13:43:00,68.5,31.0,30.15,SE,143,9.0,12.0,25,0.00,,,0.00,659,weatherlink.com 1.10,2013-02-03 19:43:00,
2013-02-03 13:58:00,68.5,30.0,30.14,SE,137,9.0,13.0,24,0.00,,,0.00,619,weatherlink.com 1.10,2013-02-03 19:58:00,
2013-02-03 14:13:00,68.9,28.0,30.14,ESE,110,7.0,13.0,22,0.00,,,0.00,362,weatherlink.com 1.10,2013-02-03 20:13:00,
2013-02-03 14:28:00,68.3,29.0,30.12,SE,130,7.0,11.0,23,0.00,,,0.00,304,weatherlink.com 1.10,2013-02-03 20:28:00,
2013-02-03 14:43:00,68.9,29.0,30.12,ESE,104,7.0,8.0,23,0.00,,,0.00,383,weatherlink.com 1.10,2013-02-03 20:43:00,
2013-02-03 14:58:00,68.7,28.0,30.11,East,87,9.0,12.0,22,0.00,,,0.00,468,weatherlink.com 1.10,2013-02-03 20:58:00,
2013-02-03 15:15:00,68.4,29.0,30.10,East,97,6.0,11.0,23,0.00,,,0.00,304,weatherlink.com 1.10,2013-02-03 21:15:00,
2013-02-03 15:29:00,69.3,28.0,30.09,ESE,108,5.0,12.0,21,0.00,,,0.00,615,weatherlink.com 1.10,2013-02-03 21:29:00,
2013-02-03 15:44:00,68.5,28.0,30.08,ESE,120,3.0,14.0,22,0.00,,,0.00,262,weatherlink.com 1.10,2013-02-03 21:44:00,
2013-02-03 15:59:00,68.7,29.0,30.07,ESE,122,5.0,12.0,23,0.00,,,0.00,209,weatherlink.com 1.10,2013-02-03 21:59:00,
2013-02-03 16:14:00,69.3,31.0,30.07,SE,130,8.0,11.0,24,0.00,,,0.00,299,weatherlink.com 1.10,2013-02-03 22:14:00,
2013-02-03 16:29:00,68.6,30.0,30.06,SE,129,5.0,11.0,24,0.00,,,0.00,120,weatherlink.com 1.10,2013-02-03 22:29:00,
2013-02-03 16:44:00,68.2,31.0,30.06,SE,125,8.0,10.0,25,0.00,,,0.00,105,weatherlink.com 1.10,2013-02-03 22:44:00,
2013-02-03 16:59:00,67.8,32.0,30.05,SE,137,6.0,10.0,26,0.00,,,0.00,100,weatherlink.com 1.10,2013-02-03 22:59:00,
2013-02-03 17:14:00,67.3,33.0,30.04,SSE,147,8.0,10.0,28,0.00,,,0.00,118,weatherlink.com 1.10,2013-02-03 23:14:00,
2013-02-03 17:29:00,66.8,33.0,30.04,SE,143,5.0,9.0,28,0.00,,,0.00,39,weatherlink.com 1.10,2013-02-03 23:29:00,
2013-02-03 17:44:00,65.3,33.0,30.04,SE,137,4.0,6.0,30,0.00,,,0.00,18,weatherlink.com 1.10,2013-02-03 23:44:00,
2013-02-03 17:59:00,64.6,32.0,30.04,SE,138,4.0,6.0,30,0.00,,,0.00,0,weatherlink.com 1.10,2013-02-03 23:59:00,
2013-02-03 18:14:00,63.7,32.0,30.03,SE,138,4.0,5.0,31,0.00,,,0.00,0,weatherlink.com 1.10,2013-02-04 00:14:00,
2013-02-03 18:29:00,63.0,33.0,30.03,SE,137,5.0,5.0,32,0.00,,,0.00,0,weatherlink.com 1.10,2013-02-04 00:29:00,
2013-02-03 18:44:00,61.9,33.0,30.04,SE,137,4.0,5.0,34,0.00,,,0.00,0,weatherlink.com 1.10,2013-02-04 00:44:00,
2013-02-03 18:59:00,61.4,33.0,30.04,SE,138,4.0,5.0,34,0.00,,,0.00,0,weatherlink.com 1.10,2013-02-04 00:59:00,
2013-02-03 19:14:00,60.8,32.0,30.04,SE,138,2.0,5.0,34,0.00,,,0.00,0,weatherlink.com 1.10,2013-02-04 01:14:00,
2013-02-03 19:29:00,60.3,32.0,30.04,SE,138,3.0,4.0,35,0.00,,,0.00,0,weatherlink.com 1.10,2013-02-04 01:29:00,
2013-02-03 19:44:00,59.7,32.0,30.03,SE,138,2.0,5.0,35,0.00,,,0.00,0,weatherlink.com 1.10,2013-02-04 01:44:00,
2013-02-03 19:59:00,59.1,33.0,30.02,SE,137,4.0,6.0,37,0.00,,,0.00,0,weatherlink.com 1.10,2013-02-04 01:59:00,
2013-02-03 20:14:00,58.3,33.0,30.02,SE,137,5.0,5.0,38,0.00,,,0.00,0,weatherlink.com 1.10,2013-02-04 02:14:00,
2013-02-03 20:29:00,58.7,32.0,30.03,SE,137,4.0,6.0,37,0.00,,,0.00,0,weatherlink.com 1.10,2013-02-04 02:29:00,
2013-02-03 20:44:00,58.6,33.0,30.02,SE,137,6.0,7.0,38,0.00,,,0.00,0,weatherlink.com 1.10,2013-02-04 02:44:00,
2013-02-03 20:59:00,58.2,32.0,30.01,SE,137,4.0,6.0,38,0.00,,,0.00,0,weatherlink.com 1.10,2013-02-04 02:59:00,
2013-02-03 21:14:00,57.9,33.0,30.01,SE,137,3.0,6.0,39,0.00,,,0.00,0,weatherlink.com 1.10,2013-02-04 03:14:00,
2013-02-03 21:29:00,57.8,33.0,30.00,SE,137,2.0,6.0,39,0.00,,,0.00,0,weatherlink.com 1.10,2013-02-04 03:29:00,
2013-02-03 21:44:00,57.8,33.0,29.99,ESE,119,4.0,9.0,40,0.00,,,0.00,0,weatherlink.com 1.10,2013-02-04 03:44:00,
2013-02-03 21:59:00,57.3,34.0,29.98,ESE,106,3.0,5.0,42,0.00,,,0.00,0,weatherlink.com 1.10,2013-02-04 03:59:00,
2013-02-03 22:14:00,57.0,34.0,29.98,ESE,106,4.0,5.0,42,0.00,,,0.00,0,weatherlink.com 1.10,2013-02-04 04:14:00,
2013-02-03 22:29:00,57.1,34.0,29.98,ESE,106,2.0,7.0,42,0.00,,,0.00,0,weatherlink.com 1.10,2013-02-04 04:29:00,
2013-02-03 22:44:00,57.8,33.0,29.98,ESE,105,4.0,5.0,40,0.00,,,0.00,0,weatherlink.com 1.10,2013-02-04 04:44:00,
2013-02-03 22:59:00,58.7,34.0,29.98,ESE,120,7.0,9.0,39,0.00,,,0.00,0,weatherlink.com 1.10,2013-02-04 04:59:00,
2013-02-03 23:14:00,59.0,33.0,29.97,ESE,120,5.0,11.0,38,0.00,,,0.00,0,weatherlink.com 1.10,2013-02-04 05:14:00,
2013-02-03 23:29:00,59.0,33.0,29.96,ESE,118,8.0,12.0,38,0.00,,,0.00,0,weatherlink.com 1.10,2013-02-04 05:29:00,
2013-02-03 23:44:00,58.6,34.0,29.95,SE,125,6.0,11.0,39,0.00,,,0.00,0,weatherlink.com 1.10,2013-02-04 05:44:00,
2013-02-03 23:59:00,58.2,34.0,29.95,SE,130,5.0,9.0,40,0.00,,,0.00,0,weatherlink.com 1.10,2013-02-04 05:59:00,